sensor_id;sensor_type;location;lat;lon;timestamp;pressure;altitude;pressure_sealevel;temperature;humidity
58223;BME280;44020;50.890;15.796;2023-04-29T00:00:34;97132.91;;;10.58;65.14
58223;BME280;44020;50.890;15.796;2023-04-29T00:03:26;97130.55;;;10.57;65.61
58223;BME280;44020;50.890;15.796;2023-04-29T00:09:31;97124.60;;;10.56;65.96
58223;BME280;44020;50.890;15.796;2023-04-29T00:12:19;97123.98;;;10.55;65.84
58223;BME280;44020;50.890;15.796;2023-04-29T00:15:08;97124.00;;;10.52;65.79
58223;BME280;44020;50.890;15.796;2023-04-29T00:17:36;97118.28;;;10.50;65.72
58223;BME280;44020;50.890;15.796;2023-04-29T00:20:26;97114.17;;;10.48;65.87
58223;BME280;44020;50.890;15.796;2023-04-29T00:23:35;97114.67;;;10.49;66.00
58223;BME280;44020;50.890;15.796;2023-04-29T00:26:02;97122.80;;;10.49;66.13
58223;BME280;44020;50.890;15.796;2023-04-29T00:32:13;97124.48;;;10.46;66.27
58223;BME280;44020;50.890;15.796;2023-04-29T00:34:57;97129.23;;;10.42;66.22
58223;BME280;44020;50.890;15.796;2023-04-29T00:44:32;97131.51;;;10.40;66.29
58223;BME280;44020;50.890;15.796;2023-04-29T00:47:20;97131.91;;;10.40;66.30
58223;BME280;44020;50.890;15.796;2023-04-29T00:49:59;97133.74;;;10.39;66.39
58223;BME280;44020;50.890;15.796;2023-04-29T00:59:19;97132.71;;;10.34;66.98
58223;BME280;44020;50.890;15.796;2023-04-29T01:02:18;97127.27;;;10.35;67.22
58223;BME280;44020;50.890;15.796;2023-04-29T01:09:04;97129.40;;;10.40;67.40
58223;BME280;44020;50.890;15.796;2023-04-29T01:15:46;97121.91;;;10.45;67.48
58223;BME280;44020;50.890;15.796;2023-04-29T01:29:58;97119.61;;;10.40;68.57
58223;BME280;44020;50.890;15.796;2023-04-29T01:42:17;97124.00;;;10.36;68.97
58223;BME280;44020;50.890;15.796;2023-04-29T01:45:39;97119.55;;;10.36;69.25
58223;BME280;44020;50.890;15.796;2023-04-29T01:48:26;97117.27;;;10.36;69.38
58223;BME280;44020;50.890;15.796;2023-04-29T01:51:15;97113.61;;;10.35;69.33
58223;BME280;44020;50.890;15.796;2023-04-29T01:56:37;97104.33;;;10.36;69.72
58223;BME280;44020;50.890;15.796;2023-04-29T01:59:14;97101.20;;;10.37;69.87
58223;BME280;44020;50.890;15.796;2023-04-29T02:01:42;97100.60;;;10.36;69.68
58223;BME280;44020;50.890;15.796;2023-04-29T02:07:24;97103.20;;;10.32;70.09
58223;BME280;44020;50.890;15.796;2023-04-29T02:10:28;97099.13;;;10.32;70.20
58223;BME280;44020;50.890;15.796;2023-04-29T02:13:00;97093.58;;;10.30;70.02
58223;BME280;44020;50.890;15.796;2023-04-29T02:15:49;97097.96;;;10.28;70.08
58223;BME280;44020;50.890;15.796;2023-04-29T02:18:23;97093.98;;;10.27;70.20
58223;BME280;44020;50.890;15.796;2023-04-29T02:21:12;97098.06;;;10.27;70.38
58223;BME280;44020;50.890;15.796;2023-04-29T02:23:50;97097.40;;;10.26;70.36
58223;BME280;44020;50.890;15.796;2023-04-29T02:29:40;97104.05;;;10.23;70.20
58223;BME280;44020;50.890;15.796;2023-04-29T02:32:07;97105.41;;;10.17;70.48
58223;BME280;44020;50.890;15.796;2023-04-29T02:35:07;97103.61;;;10.15;70.55
58223;BME280;44020;50.890;15.796;2023-04-29T02:38:14;97099.40;;;10.14;70.92
58223;BME280;44020;50.890;15.796;2023-04-29T02:41:26;97103.61;;;10.15;70.96
58223;BME280;44020;50.890;15.796;2023-04-29T02:44:11;97099.86;;;10.15;70.98
58223;BME280;44020;50.890;15.796;2023-04-29T02:47:09;97098.25;;;10.15;71.17
58223;BME280;44020;50.890;15.796;2023-04-29T02:56:13;97105.30;;;10.09;71.21
58223;BME280;44020;50.890;15.796;2023-04-29T02:59:10;97105.92;;;10.08;71.40
58223;BME280;44020;50.890;15.796;2023-04-29T03:02:33;97107.13;;;10.09;71.55
58223;BME280;44020;50.890;15.796;2023-04-29T03:08:29;97112.02;;;10.03;71.51
58223;BME280;44020;50.890;15.796;2023-04-29T03:11:25;97120.95;;;10.00;71.91
58223;BME280;44020;50.890;15.796;2023-04-29T03:14:24;97118.75;;;9.98;72.27
58223;BME280;44020;50.890;15.796;2023-04-29T03:26:51;97111.79;;;9.88;73.25
58223;BME280;44020;50.890;15.796;2023-04-29T03:32:39;97105.24;;;9.85;73.73
58223;BME280;44020;50.890;15.796;2023-04-29T03:35:19;97100.36;;;9.82;73.82
58223;BME280;44020;50.890;15.796;2023-04-29T03:38:19;97103.50;;;9.77;73.99
58223;BME280;44020;50.890;15.796;2023-04-29T03:40:56;97099.59;;;9.75;74.19
58223;BME280;44020;50.890;15.796;2023-04-29T03:43:31;97096.79;;;9.75;74.30
58223;BME280;44020;50.890;15.796;2023-04-29T03:50:18;97098.04;;;9.72;74.78
58223;BME280;44020;50.890;15.796;2023-04-29T03:53:16;97093.53;;;9.71;74.86
58223;BME280;44020;50.890;15.796;2023-04-29T03:56:41;97093.49;;;9.72;75.22
58223;BME280;44020;50.890;15.796;2023-04-29T04:02:46;97093.01;;;9.69;75.73
58223;BME280;44020;50.890;15.796;2023-04-29T04:05:17;97099.05;;;9.69;75.89
58223;BME280;44020;50.890;15.796;2023-04-29T04:07:57;97099.10;;;9.68;76.12
58223;BME280;44020;50.890;15.796;2023-04-29T04:10:32;97100.67;;;9.68;76.34
58223;BME280;44020;50.890;15.796;2023-04-29T04:13:02;97094.54;;;9.69;76.50
58223;BME280;44020;50.890;15.796;2023-04-29T04:15:51;97097.38;;;9.72;76.86
58223;BME280;44020;50.890;15.796;2023-04-29T04:18:26;97102.20;;;9.74;77.02
58223;BME280;44020;50.890;15.796;2023-04-29T04:21:24;97102.04;;;9.74;77.10
58223;BME280;44020;50.890;15.796;2023-04-29T04:24:14;97103.38;;;9.75;77.30
58223;BME280;44020;50.890;15.796;2023-04-29T04:27:02;97110.34;;;9.74;77.32
58223;BME280;44020;50.890;15.796;2023-04-29T04:29:33;97113.67;;;9.74;77.51
58223;BME280;44020;50.890;15.796;2023-04-29T04:32:01;97115.17;;;9.73;77.88
58223;BME280;44020;50.890;15.796;2023-04-29T04:34:44;97119.71;;;9.74;78.25
58223;BME280;44020;50.890;15.796;2023-04-29T04:37:14;97124.32;;;9.77;78.67
58223;BME280;44020;50.890;15.796;2023-04-29T04:39:42;97124.79;;;9.77;78.81
58223;BME280;44020;50.890;15.796;2023-04-29T04:45:23;97125.10;;;9.80;79.06
58223;BME280;44020;50.890;15.796;2023-04-29T04:51:32;97136.40;;;9.81;79.20
58223;BME280;44020;50.890;15.796;2023-04-29T04:54:10;97137.59;;;9.80;79.34
58223;BME280;44020;50.890;15.796;2023-04-29T05:03:01;97148.79;;;9.74;80.21
58223;BME280;44020;50.890;15.796;2023-04-29T05:05:39;97148.90;;;9.75;80.28
58223;BME280;44020;50.890;15.796;2023-04-29T05:08:07;97149.55;;;9.76;80.49
58223;BME280;44020;50.890;15.796;2023-04-29T05:10:59;97147.38;;;9.77;80.91
58223;BME280;44020;50.890;15.796;2023-04-29T05:13:51;97144.41;;;9.78;81.31
58223;BME280;44020;50.890;15.796;2023-04-29T05:16:21;97140.31;;;9.78;81.39
58223;BME280;44020;50.890;15.796;2023-04-29T05:19:10;97143.14;;;9.79;81.50
58223;BME280;44020;50.890;15.796;2023-04-29T05:22:10;97140.15;;;9.78;81.79
58223;BME280;44020;50.890;15.796;2023-04-29T05:24:45;97137.77;;;9.79;82.08
58223;BME280;44020;50.890;15.796;2023-04-29T05:27:14;97142.30;;;9.81;82.23
58223;BME280;44020;50.890;15.796;2023-04-29T05:30:26;97146.36;;;9.81;82.09
58223;BME280;44020;50.890;15.796;2023-04-29T05:32:56;97141.70;;;9.82;82.57
58223;BME280;44020;50.890;15.796;2023-04-29T05:35:48;97138.60;;;9.83;82.64
58223;BME280;44020;50.890;15.796;2023-04-29T05:38:36;97138.11;;;9.85;82.73
58223;BME280;44020;50.890;15.796;2023-04-29T05:41:07;97131.98;;;9.86;82.77
58223;BME280;44020;50.890;15.796;2023-04-29T05:46:17;97123.89;;;9.87;83.16
58223;BME280;44020;50.890;15.796;2023-04-29T05:48:55;97122.83;;;9.87;83.18
58223;BME280;44020;50.890;15.796;2023-04-29T05:51:23;97130.13;;;9.87;83.40
58223;BME280;44020;50.890;15.796;2023-04-29T05:54:00;97129.20;;;9.87;83.56
58223;BME280;44020;50.890;15.796;2023-04-29T05:56:39;97133.08;;;9.88;83.87
58223;BME280;44020;50.890;15.796;2023-04-29T06:02:32;97122.98;;;9.92;84.38
58223;BME280;44020;50.890;15.796;2023-04-29T06:05:17;97128.98;;;9.95;84.59
58223;BME280;44020;50.890;15.796;2023-04-29T06:07:45;97130.70;;;9.98;84.66
58223;BME280;44020;50.890;15.796;2023-04-29T06:10:13;97141.48;;;10.01;84.65
58223;BME280;44020;50.890;15.796;2023-04-29T06:12:44;97152.61;;;10.01;84.78
58223;BME280;44020;50.890;15.796;2023-04-29T06:15:26;97147.70;;;10.03;85.00
58223;BME280;44020;50.890;15.796;2023-04-29T06:18:16;97148.88;;;10.08;85.53
58223;BME280;44020;50.890;15.796;2023-04-29T06:23:51;97150.33;;;10.17;85.78
58223;BME280;44020;50.890;15.796;2023-04-29T06:26:27;97147.59;;;10.20;85.67
58223;BME280;44020;50.890;15.796;2023-04-29T06:29:00;97148.91;;;10.21;85.93
58223;BME280;44020;50.890;15.796;2023-04-29T06:31:33;97150.03;;;10.26;86.23
58223;BME280;44020;50.890;15.796;2023-04-29T06:34:09;97150.83;;;10.30;86.24
58223;BME280;44020;50.890;15.796;2023-04-29T06:36:43;97152.66;;;10.33;86.53
58223;BME280;44020;50.890;15.796;2023-04-29T06:39:10;97152.52;;;10.37;86.62
58223;BME280;44020;50.890;15.796;2023-04-29T06:41:46;97146.93;;;10.40;86.76
58223;BME280;44020;50.890;15.796;2023-04-29T06:44:27;97144.82;;;10.45;87.10
58223;BME280;44020;50.890;15.796;2023-04-29T06:47:03;97144.15;;;10.49;87.37
58223;BME280;44020;50.890;15.796;2023-04-29T06:49:34;97140.48;;;10.53;87.38
58223;BME280;44020;50.890;15.796;2023-04-29T06:52:05;97140.42;;;10.55;87.47
58223;BME280;44020;50.890;15.796;2023-04-29T06:54:33;97141.13;;;10.58;87.67
58223;BME280;44020;50.890;15.796;2023-04-29T06:57:00;97137.86;;;10.61;87.71
58223;BME280;44020;50.890;15.796;2023-04-29T06:59:29;97137.03;;;10.62;87.86
58223;BME280;44020;50.890;15.796;2023-04-29T07:02:00;97138.30;;;10.64;87.92
58223;BME280;44020;50.890;15.796;2023-04-29T07:04:30;97138.63;;;10.67;88.13
58223;BME280;44020;50.890;15.796;2023-04-29T07:07:01;97140.72;;;10.70;88.39
58223;BME280;44020;50.890;15.796;2023-04-29T07:09:29;97139.10;;;10.73;88.36
58223;BME280;44020;50.890;15.796;2023-04-29T07:12:05;97139.52;;;10.76;88.58
58223;BME280;44020;50.890;15.796;2023-04-29T07:15:01;97133.95;;;10.79;88.59
58223;BME280;44020;50.890;15.796;2023-04-29T07:17:52;97134.15;;;10.80;88.69
58223;BME280;44020;50.890;15.796;2023-04-29T07:20:43;97138.73;;;10.83;89.04
58223;BME280;44020;50.890;15.796;2023-04-29T07:23:20;97135.17;;;10.88;89.09
58223;BME280;44020;50.890;15.796;2023-04-29T07:25:50;97135.26;;;10.96;89.25
58223;BME280;44020;50.890;15.796;2023-04-29T07:28:18;97131.60;;;11.06;90.03
58223;BME280;44020;50.890;15.796;2023-04-29T07:30:46;97126.20;;;11.17;90.21
58223;BME280;44020;50.890;15.796;2023-04-29T07:36:53;97116.66;;;11.47;91.77
58223;BME280;44020;50.890;15.796;2023-04-29T07:39:31;97118.17;;;11.61;91.85
58223;BME280;44020;50.890;15.796;2023-04-29T07:42:11;97117.91;;;11.70;91.95
58223;BME280;44020;50.890;15.796;2023-04-29T07:45:24;97124.75;;;11.80;91.75
58223;BME280;44020;50.890;15.796;2023-04-29T07:47:57;97122.46;;;11.88;91.82
58223;BME280;44020;50.890;15.796;2023-04-29T07:50:25;97117.67;;;11.95;91.45
58223;BME280;44020;50.890;15.796;2023-04-29T07:52:56;97118.61;;;12.00;91.33
58223;BME280;44020;50.890;15.796;2023-04-29T07:55:41;97122.68;;;12.08;91.34
58223;BME280;44020;50.890;15.796;2023-04-29T07:58:22;97126.95;;;12.15;91.04
58223;BME280;44020;50.890;15.796;2023-04-29T08:00:53;97129.73;;;12.22;91.07
58223;BME280;44020;50.890;15.796;2023-04-29T08:03:26;97136.90;;;12.30;90.97
58223;BME280;44020;50.890;15.796;2023-04-29T08:05:59;97132.15;;;12.42;91.24
58223;BME280;44020;50.890;15.796;2023-04-29T08:08:47;97130.30;;;12.57;91.31
58223;BME280;44020;50.890;15.796;2023-04-29T08:11:19;97128.00;;;12.71;91.18
58223;BME280;44020;50.890;15.796;2023-04-29T08:14:10;97130.96;;;12.83;90.90
58223;BME280;44020;50.890;15.796;2023-04-29T08:16:39;97135.63;;;12.93;90.85
58223;BME280;44020;50.890;15.796;2023-04-29T08:19:16;97138.69;;;12.99;90.65
58223;BME280;44020;50.890;15.796;2023-04-29T08:21:53;97148.41;;;13.02;90.25
58223;BME280;44020;50.890;15.796;2023-04-29T08:24:41;97166.92;;;12.98;89.89
58223;BME280;44020;50.890;15.796;2023-04-29T08:27:22;97196.20;;;12.88;89.41
58223;BME280;44020;50.890;15.796;2023-04-29T08:29:55;97207.50;;;12.73;89.83
58223;BME280;44020;50.890;15.796;2023-04-29T08:32:23;97198.39;;;12.52;89.82
58223;BME280;44020;50.890;15.796;2023-04-29T08:35:15;97198.09;;;12.28;89.61
58223;BME280;44020;50.890;15.796;2023-04-29T08:37:56;97193.40;;;12.08;89.67
58223;BME280;44020;50.890;15.796;2023-04-29T08:40:25;97191.08;;;11.94;89.95
58223;BME280;44020;50.890;15.796;2023-04-29T08:42:59;97196.42;;;11.85;90.38
58223;BME280;44020;50.890;15.796;2023-04-29T08:45:43;97193.70;;;11.77;90.69
58223;BME280;44020;50.890;15.796;2023-04-29T08:48:40;97189.41;;;11.79;90.92
58223;BME280;44020;50.890;15.796;2023-04-29T08:51:16;97187.86;;;11.85;91.17
58223;BME280;44020;50.890;15.796;2023-04-29T08:53:51;97187.45;;;11.93;91.63
58223;BME280;44020;50.890;15.796;2023-04-29T08:56:22;97192.20;;;11.99;91.59
58223;BME280;44020;50.890;15.796;2023-04-29T08:58:54;97187.96;;;12.05;91.57
58223;BME280;44020;50.890;15.796;2023-04-29T09:01:31;97192.05;;;12.12;91.47
58223;BME280;44020;50.890;15.796;2023-04-29T09:07:09;97201.45;;;12.29;92.25
58223;BME280;44020;50.890;15.796;2023-04-29T09:09:41;97197.98;;;12.44;92.17
58223;BME280;44020;50.890;15.796;2023-04-29T09:12:12;97195.94;;;12.58;92.42
58223;BME280;44020;50.890;15.796;2023-04-29T09:14:50;97194.66;;;12.69;91.84
58223;BME280;44020;50.890;15.796;2023-04-29T09:17:49;97198.40;;;12.75;91.54
58223;BME280;44020;50.890;15.796;2023-04-29T09:23:02;97200.90;;;12.95;92.07
58223;BME280;44020;50.890;15.796;2023-04-29T09:25:33;97200.05;;;13.07;91.91
58223;BME280;44020;50.890;15.796;2023-04-29T09:28:23;97203.17;;;13.18;92.17
58223;BME280;44020;50.890;15.796;2023-04-29T09:30:51;97203.13;;;13.24;91.68
58223;BME280;44020;50.890;15.796;2023-04-29T09:33:19;97206.45;;;13.27;91.46
58223;BME280;44020;50.890;15.796;2023-04-29T09:35:55;97211.10;;;13.27;91.21
58223;BME280;44020;50.890;15.796;2023-04-29T09:38:23;97213.33;;;13.26;90.89
58223;BME280;44020;50.890;15.796;2023-04-29T09:40:51;97215.27;;;13.24;90.69
58223;BME280;44020;50.890;15.796;2023-04-29T09:43:20;97216.67;;;13.22;90.60
58223;BME280;44020;50.890;15.796;2023-04-29T09:45:48;97224.27;;;13.21;90.76
58223;BME280;44020;50.890;15.796;2023-04-29T09:48:16;97225.31;;;13.18;90.88
58223;BME280;44020;50.890;15.796;2023-04-29T09:51:08;97230.20;;;13.12;91.30
58223;BME280;44020;50.890;15.796;2023-04-29T09:53:37;97226.90;;;13.05;91.44
58223;BME280;44020;50.890;15.796;2023-04-29T09:56:17;97228.44;;;13.02;91.65
58223;BME280;44020;50.890;15.796;2023-04-29T09:58:47;97230.14;;;13.03;91.73
58223;BME280;44020;50.890;15.796;2023-04-29T10:01:29;97233.67;;;13.03;92.13
58223;BME280;44020;50.890;15.796;2023-04-29T10:03:58;97235.66;;;13.01;92.13
58223;BME280;44020;50.890;15.796;2023-04-29T10:06:37;97236.28;;;13.00;92.42
58223;BME280;44020;50.890;15.796;2023-04-29T10:09:17;97242.40;;;13.02;92.78
58223;BME280;44020;50.890;15.796;2023-04-29T10:11:56;97239.30;;;13.10;92.68
58223;BME280;44020;50.890;15.796;2023-04-29T10:14:33;97242.21;;;13.20;92.97
58223;BME280;44020;50.890;15.796;2023-04-29T10:17:42;97234.88;;;13.24;92.85
58223;BME280;44020;50.890;15.796;2023-04-29T10:20:22;97229.38;;;13.26;93.02
58223;BME280;44020;50.890;15.796;2023-04-29T10:23:12;97226.27;;;13.25;92.74
58223;BME280;44020;50.890;15.796;2023-04-29T10:25:47;97229.34;;;13.20;92.56
58223;BME280;44020;50.890;15.796;2023-04-29T10:31:27;97229.45;;;13.34;92.64
58223;BME280;44020;50.890;15.796;2023-04-29T10:34:15;97230.45;;;13.50;93.45
58223;BME280;44020;50.890;15.796;2023-04-29T10:36:45;97236.67;;;13.55;92.38
58223;BME280;44020;50.890;15.796;2023-04-29T10:39:20;97236.94;;;13.49;91.54
58223;BME280;44020;50.890;15.796;2023-04-29T10:41:53;97235.27;;;13.44;91.07
58223;BME280;44020;50.890;15.796;2023-04-29T10:44:28;97237.78;;;13.37;91.22
58223;BME280;44020;50.890;15.796;2023-04-29T10:47:40;97238.73;;;13.33;91.08
58223;BME280;44020;50.890;15.796;2023-04-29T10:50:12;97236.02;;;13.34;91.64
58223;BME280;44020;50.890;15.796;2023-04-29T10:52:54;97240.50;;;13.40;91.47
58223;BME280;44020;50.890;15.796;2023-04-29T10:55:25;97240.04;;;13.39;91.86
58223;BME280;44020;50.890;15.796;2023-04-29T10:57:59;97241.91;;;13.38;91.77
58223;BME280;44020;50.890;15.796;2023-04-29T11:00:39;97243.33;;;13.36;91.78
58223;BME280;44020;50.890;15.796;2023-04-29T11:06:18;97242.63;;;13.32;91.96
58223;BME280;44020;50.890;15.796;2023-04-29T11:09:09;97245.35;;;13.27;92.17
58223;BME280;44020;50.890;15.796;2023-04-29T11:14:18;97247.65;;;13.19;91.90
58223;BME280;44020;50.890;15.796;2023-04-29T11:16:54;97251.27;;;13.17;92.18
58223;BME280;44020;50.890;15.796;2023-04-29T11:19:33;97258.23;;;13.17;92.39
58223;BME280;44020;50.890;15.796;2023-04-29T11:22:25;97260.33;;;13.11;92.23
58223;BME280;44020;50.890;15.796;2023-04-29T11:27:57;97267.01;;;13.02;92.13
58223;BME280;44020;50.890;15.796;2023-04-29T11:30:27;97267.44;;;12.97;92.21
58223;BME280;44020;50.890;15.796;2023-04-29T11:32:59;97272.62;;;12.95;92.38
58223;BME280;44020;50.890;15.796;2023-04-29T11:35:44;97273.67;;;12.95;92.38
58223;BME280;44020;50.890;15.796;2023-04-29T11:38:26;97272.54;;;12.92;92.35
58223;BME280;44020;50.890;15.796;2023-04-29T11:41:03;97278.30;;;12.91;92.33
58223;BME280;44020;50.890;15.796;2023-04-29T11:43:33;97277.95;;;12.91;92.77
58223;BME280;44020;50.890;15.796;2023-04-29T11:46:13;97276.20;;;12.90;92.79
58223;BME280;44020;50.890;15.796;2023-04-29T11:48:51;97273.73;;;12.94;93.05
58223;BME280;44020;50.890;15.796;2023-04-29T11:51:33;97272.55;;;12.98;93.00
58223;BME280;44020;50.890;15.796;2023-04-29T11:54:33;97274.19;;;12.99;93.10
58223;BME280;44020;50.890;15.796;2023-04-29T12:00:20;97267.11;;;13.07;93.26
58223;BME280;44020;50.890;15.796;2023-04-29T12:06:00;97264.62;;;13.17;92.96
58223;BME280;44020;50.890;15.796;2023-04-29T12:08:29;97261.35;;;13.24;93.07
58223;BME280;44020;50.890;15.796;2023-04-29T12:10:59;97263.29;;;13.30;92.92
58223;BME280;44020;50.890;15.796;2023-04-29T12:13:40;97263.09;;;13.37;92.68
58223;BME280;44020;50.890;15.796;2023-04-29T12:16:10;97260.80;;;13.40;92.14
58223;BME280;44020;50.890;15.796;2023-04-29T12:18:38;97256.55;;;13.44;92.05
58223;BME280;44020;50.890;15.796;2023-04-29T12:21:10;97255.77;;;13.52;91.99
58223;BME280;44020;50.890;15.796;2023-04-29T12:23:44;97253.66;;;13.62;92.10
58223;BME280;44020;50.890;15.796;2023-04-29T12:26:15;97250.73;;;13.77;91.77
58223;BME280;44020;50.890;15.796;2023-04-29T12:28:52;97248.65;;;13.90;91.73
58223;BME280;44020;50.890;15.796;2023-04-29T12:31:23;97243.36;;;14.09;91.37
58223;BME280;44020;50.890;15.796;2023-04-29T12:34:08;97239.98;;;14.28;90.95
58223;BME280;44020;50.890;15.796;2023-04-29T12:36:58;97238.94;;;14.49;90.66
58223;BME280;44020;50.890;15.796;2023-04-29T12:39:30;97239.74;;;14.69;90.06
58223;BME280;44020;50.890;15.796;2023-04-29T12:42:01;97239.64;;;14.85;89.29
58223;BME280;44020;50.890;15.796;2023-04-29T12:44:44;97236.83;;;14.92;88.01
58223;BME280;44020;50.890;15.796;2023-04-29T12:47:22;97225.61;;;14.92;86.96
58223;BME280;44020;50.890;15.796;2023-04-29T12:49:50;97226.91;;;14.91;86.43
58223;BME280;44020;50.890;15.796;2023-04-29T12:52:24;97218.56;;;14.89;85.85
58223;BME280;44020;50.890;15.796;2023-04-29T12:54:56;97232.16;;;14.83;85.26
58223;BME280;44020;50.890;15.796;2023-04-29T12:57:30;97241.99;;;14.72;84.80
58223;BME280;44020;50.890;15.796;2023-04-29T13:00:03;97247.44;;;14.61;84.54
58223;BME280;44020;50.890;15.796;2023-04-29T13:02:36;97254.18;;;14.52;83.77
58223;BME280;44020;50.890;15.796;2023-04-29T13:05:34;97259.10;;;14.39;83.36
58223;BME280;44020;50.890;15.796;2023-04-29T13:08:09;97267.52;;;14.26;82.98
58223;BME280;44020;50.890;15.796;2023-04-29T13:10:36;97275.63;;;14.13;82.03
58223;BME280;44020;50.890;15.796;2023-04-29T13:13:07;97281.11;;;13.95;81.18
58223;BME280;44020;50.890;15.796;2023-04-29T13:15:38;97286.52;;;13.74;81.50
58223;BME280;44020;50.890;15.796;2023-04-29T13:18:12;97287.51;;;13.53;82.16
58223;BME280;44020;50.890;15.796;2023-04-29T13:20:43;97294.27;;;13.35;83.43
58223;BME280;44020;50.890;15.796;2023-04-29T13:23:17;97296.33;;;13.15;84.36
58223;BME280;44020;50.890;15.796;2023-04-29T13:25:50;97296.70;;;13.05;85.07
58223;BME280;44020;50.890;15.796;2023-04-29T13:28:23;97301.52;;;13.01;85.65
58223;BME280;44020;50.890;15.796;2023-04-29T13:30:51;97305.30;;;12.94;85.86
58223;BME280;44020;50.890;15.796;2023-04-29T13:33:20;97308.52;;;12.92;86.80
58223;BME280;44020;50.890;15.796;2023-04-29T13:35:53;97308.53;;;12.81;87.06
58223;BME280;44020;50.890;15.796;2023-04-29T13:38:31;97312.64;;;12.79;87.61
58223;BME280;44020;50.890;15.796;2023-04-29T13:41:01;97310.41;;;12.74;87.88
58223;BME280;44020;50.890;15.796;2023-04-29T13:43:35;97311.88;;;12.71;88.04
58223;BME280;44020;50.890;15.796;2023-04-29T13:46:10;97316.48;;;12.72;88.06
58223;BME280;44020;50.890;15.796;2023-04-29T13:48:38;97316.60;;;12.68;88.58
58223;BME280;44020;50.890;15.796;2023-04-29T13:51:11;97317.58;;;12.61;88.55
58223;BME280;44020;50.890;15.796;2023-04-29T13:53:42;97314.08;;;12.58;88.79
58223;BME280;44020;50.890;15.796;2023-04-29T13:56:20;97313.10;;;12.59;88.87
58223;BME280;44020;50.890;15.796;2023-04-29T13:58:59;97312.53;;;12.61;89.04
58223;BME280;44020;50.890;15.796;2023-04-29T14:01:36;97313.07;;;12.59;89.06
58223;BME280;44020;50.890;15.796;2023-04-29T14:04:11;97316.79;;;12.60;89.50
58223;BME280;44020;50.890;15.796;2023-04-29T14:06:54;97318.17;;;12.64;89.83
58223;BME280;44020;50.890;15.796;2023-04-29T14:09:25;97319.54;;;12.69;89.96
58223;BME280;44020;50.890;15.796;2023-04-29T14:11:55;97315.39;;;12.74;89.86
58223;BME280;44020;50.890;15.796;2023-04-29T14:14:31;97318.15;;;12.79;89.92
58223;BME280;44020;50.890;15.796;2023-04-29T14:17:00;97322.16;;;12.80;89.88
58223;BME280;44020;50.890;15.796;2023-04-29T14:19:30;97325.42;;;12.82;89.86
58223;BME280;44020;50.890;15.796;2023-04-29T14:21:57;97329.75;;;12.83;90.09
58223;BME280;44020;50.890;15.796;2023-04-29T14:24:28;97327.69;;;12.87;89.89
58223;BME280;44020;50.890;15.796;2023-04-29T14:27:02;97327.75;;;12.86;89.69
58223;BME280;44020;50.890;15.796;2023-04-29T14:30:02;97325.91;;;12.87;89.80
58223;BME280;44020;50.890;15.796;2023-04-29T14:32:40;97328.44;;;12.88;89.91
58223;BME280;44020;50.890;15.796;2023-04-29T14:35:34;97328.54;;;12.89;89.71
58223;BME280;44020;50.890;15.796;2023-04-29T14:38:09;97330.10;;;12.88;89.70
58223;BME280;44020;50.890;15.796;2023-04-29T14:41:01;97333.33;;;12.87;89.51
58223;BME280;44020;50.890;15.796;2023-04-29T14:43:42;97328.79;;;12.78;89.37
58223;BME280;44020;50.890;15.796;2023-04-29T14:46:33;97336.86;;;12.71;89.16
58223;BME280;44020;50.890;15.796;2023-04-29T14:49:00;97331.48;;;12.59;89.27
58223;BME280;44020;50.890;15.796;2023-04-29T14:51:43;97331.55;;;12.52;89.33
58223;BME280;44020;50.890;15.796;2023-04-29T14:54:11;97337.30;;;12.45;89.42
58223;BME280;44020;50.890;15.796;2023-04-29T14:56:47;97340.02;;;12.40;89.65
58223;BME280;44020;50.890;15.796;2023-04-29T14:59:21;97341.55;;;12.32;89.79
58223;BME280;44020;50.890;15.796;2023-04-29T15:02:19;97346.77;;;12.25;89.98
58223;BME280;44020;50.890;15.796;2023-04-29T15:05:04;97349.83;;;12.22;90.27
58223;BME280;44020;50.890;15.796;2023-04-29T15:07:40;97352.98;;;12.19;90.51
58223;BME280;44020;50.890;15.796;2023-04-29T15:10:21;97348.36;;;12.12;90.78
58223;BME280;44020;50.890;15.796;2023-04-29T15:12:52;97349.30;;;12.12;91.12
58223;BME280;44020;50.890;15.796;2023-04-29T15:15:40;97355.77;;;12.11;91.07
58223;BME280;44020;50.890;15.796;2023-04-29T15:26:45;97366.36;;;12.08;91.29
58223;BME280;44020;50.890;15.796;2023-04-29T15:29:44;97374.13;;;12.08;91.27
58223;BME280;44020;50.890;15.796;2023-04-29T15:35:28;97374.68;;;12.06;90.94
58223;BME280;44020;50.890;15.796;2023-04-29T15:37:59;97370.92;;;12.02;90.80
58223;BME280;44020;50.890;15.796;2023-04-29T15:40:48;97378.40;;;12.00;90.56
58223;BME280;44020;50.890;15.796;2023-04-29T15:43:40;97384.63;;;11.96;90.54
58223;BME280;44020;50.890;15.796;2023-04-29T15:46:18;97384.70;;;11.93;90.11
58223;BME280;44020;50.890;15.796;2023-04-29T15:49:08;97386.11;;;11.88;90.30
58223;BME280;44020;50.890;15.796;2023-04-29T15:51:47;97392.46;;;11.89;90.14
58223;BME280;44020;50.890;15.796;2023-04-29T15:54:24;97399.43;;;11.85;90.04
58223;BME280;44020;50.890;15.796;2023-04-29T15:57:34;97400.05;;;11.82;89.90
58223;BME280;44020;50.890;15.796;2023-04-29T16:00:22;97405.41;;;11.80;89.88
58223;BME280;44020;50.890;15.796;2023-04-29T16:02:52;97405.30;;;11.77;89.85
58223;BME280;44020;50.890;15.796;2023-04-29T16:05:23;97409.27;;;11.76;89.69
58223;BME280;44020;50.890;15.796;2023-04-29T16:11:14;97415.45;;;11.70;89.76
58223;BME280;44020;50.890;15.796;2023-04-29T16:16:43;97420.46;;;11.61;90.04
58223;BME280;44020;50.890;15.796;2023-04-29T16:19:21;97424.70;;;11.57;90.13
58223;BME280;44020;50.890;15.796;2023-04-29T16:21:52;97427.70;;;11.57;90.44
58223;BME280;44020;50.890;15.796;2023-04-29T16:24:40;97432.96;;;11.52;90.82
58223;BME280;44020;50.890;15.796;2023-04-29T16:27:08;97432.56;;;11.45;90.94
58223;BME280;44020;50.890;15.796;2023-04-29T16:29:37;97433.07;;;11.43;91.03